Time;durP1;ratioP1;P1;durP2;ratioP2;P2;SDS_P1;SDS_P2;PMS_P1;PMS_P2;Temp;Humidity;BMP_temperature;BMP_pressure;BME280_temperature;BME280_humidity;BME280_pressure;Samples;Min_cycle;Max_cycle;Signal;HPM_P1;HPM_P2
2021/08/31 00:00:17;;;;;;;11.43;10.30;;;;;20.60;101192.00;;;;5068177;28;20033;-80
2021/08/31 00:02:43;;;;;;;13.38;10.10;;;;;20.50;101178.00;;;;5068611;28;20035;-80
2021/08/31 00:05:14;;;;;;;10.25;9.18;;;;;20.60;101195.00;;;;5068042;28;20020;-84
2021/08/31 00:07:43;;;;;;;13.73;10.90;;;;;20.60;101180.00;;;;5068958;28;20073;-80
2021/08/31 00:10:11;;;;;;;12.18;9.90;;;;;20.40;101204.00;;;;5068783;28;20553;-80
2021/08/31 00:12:39;;;;;;;10.93;9.77;;;;;20.20;101214.00;;;;5068324;28;20067;-80
2021/08/31 00:15:07;;;;;;;11.93;8.90;;;;;20.10;101215.00;;;;5067665;28;20550;-80
2021/08/31 00:17:34;;;;;;;11.98;8.70;;;;;20.30;101214.00;;;;5069274;28;20060;-81
2021/08/31 00:20:01;;;;;;;13.00;9.80;;;;;20.40;101187.00;;;;5070560;28;20483;-80
2021/08/31 00:22:27;;;;;;;10.73;9.38;;;;;20.40;101203.00;;;;5068025;28;20027;-79
2021/08/31 00:24:54;;;;;;;12.23;9.57;;;;;20.30;101215.00;;;;5066114;28;20028;-80
2021/08/31 00:27:20;;;;;;;11.85;8.80;;;;;20.20;101212.00;;;;5067875;28;20391;-80
2021/08/31 00:29:47;;;;;;;12.68;9.13;;;;;20.20;101226.00;;;;5068106;28;20530;-77
2021/08/31 00:32:14;;;;;;;9.95;8.35;;;;;20.30;101209.00;;;;5068410;28;20055;-80
2021/08/31 00:34:40;;;;;;;10.77;8.98;;;;;20.30;101223.00;;;;5068194;28;20119;-78
2021/08/31 00:37:07;;;;;;;10.80;9.52;;;;;20.20;101236.00;;;;5067625;28;20433;-80
2021/08/31 00:39:33;;;;;;;11.73;8.25;;;;;20.20;101235.00;;;;5066233;28;20089;-79
2021/08/31 00:42:00;;;;;;;9.95;8.95;;;;;20.10;101210.00;;;;5067290;28;20054;-80
2021/08/31 00:44:28;;;;;;;11.18;9.10;;;;;20.20;101201.00;;;;5068057;28;20029;-79
2021/08/31 00:47:03;;;;;;;10.40;9.30;;;;;20.20;101218.00;;;;5067582;28;20029;-80
2021/08/31 00:49:33;;;;;;;11.38;8.25;;;;;20.20;101212.00;;;;5067543;28;20070;-78
2021/08/31 00:52:00;;;;;;;9.68;8.77;;;;;20.10;101214.00;;;;5067611;28;20033;-80
2021/08/31 00:54:29;;;;;;;9.70;8.43;;;;;20.10;101232.00;;;;5066885;28;20503;-80
2021/08/31 00:57:03;;;;;;;9.90;8.90;;;;;20.00;101230.00;;;;5067055;28;20024;-80
2021/08/31 00:59:33;;;;;;;10.68;9.52;;;;;20.00;101217.00;;;;5067196;28;20028;-80
2021/08/31 01:02:00;;;;;;;11.88;9.40;;;;;19.60;101246.00;;;;5065269;28;20036;-82
2021/08/31 01:04:29;;;;;;;15.07;9.30;;;;;19.70;101235.00;;;;5066652;28;20038;-80
2021/08/31 01:06:57;;;;;;;9.80;8.80;;;;;19.80;101234.00;;;;5065875;28;20032;-80
2021/08/31 01:09:25;;;;;;;10.77;8.45;;;;;20.00;101228.00;;;;5066193;28;20119;-82
2021/08/31 01:11:57;;;;;;;10.77;8.20;;;;;20.10;101257.00;;;;5066399;28;20082;-80
2021/08/31 01:14:25;;;;;;;8.90;8.00;;;;;20.00;101225.00;;;;5066395;28;20028;-81
2021/08/31 01:16:52;;;;;;;9.18;8.27;;;;;19.80;101243.00;;;;5066770;28;20025;-82
2021/08/31 01:19:31;;;;;;;11.02;9.25;;;;;19.40;101247.00;;;;5066338;28;20086;-79
2021/08/31 01:22:04;;;;;;;8.85;7.95;;;;;19.40;101247.00;;;;5066919;28;20112;-78
2021/08/31 01:24:31;;;;;;;8.68;7.78;;;;;19.60;101255.00;;;;5066568;28;20070;-79
2021/08/31 01:26:59;;;;;;;10.70;8.15;;;;;19.50;101258.00;;;;5066215;28;20067;-79
2021/08/31 01:29:31;;;;;;;9.52;7.85;;;;;19.30;101233.00;;;;5066692;28;20035;-77
2021/08/31 01:32:00;;;;;;;9.77;7.75;;;;;19.30;101264.00;;;;5066076;28;20032;-77
2021/08/31 01:34:27;;;;;;;10.57;8.15;;;;;19.50;101257.00;;;;5066459;28;20032;-78
2021/08/31 01:36:54;;;;;;;8.43;7.47;;;;;19.60;101249.00;;;;5066649;28;20033;-82
2021/08/31 01:39:21;;;;;;;10.70;7.93;;;;;19.70;101249.00;;;;5067044;28;20060;-77
2021/08/31 01:41:48;;;;;;;9.15;7.13;;;;;19.70;101257.00;;;;5066991;28;20169;-78
2021/08/31 01:44:14;;;;;;;13.63;7.25;;;;;19.60;101225.00;;;;5066544;28;20143;-78
2021/08/31 01:46:41;;;;;;;10.82;7.18;;;;;19.60;101240.00;;;;5066170;28;20106;-77
2021/08/31 01:49:08;;;;;;;7.68;6.90;;;;;19.60;101255.00;;;;5066555;28;20036;-80
2021/08/31 01:51:35;;;;;;;7.65;6.78;;;;;19.60;101258.00;;;;5066432;28;20044;-81
2021/08/31 01:54:01;;;;;;;8.77;7.68;;;;;19.60;101258.00;;;;5065955;28;20061;-78
2021/08/31 01:56:28;;;;;;;8.75;6.65;;;;;19.50;101247.00;;;;5066435;28;20040;-79
2021/08/31 01:58:54;;;;;;;11.13;7.03;;;;;19.60;101244.00;;;;5066597;28;20032;-78
2021/08/31 02:01:21;;;;;;;9.45;6.18;;;;;19.40;101252.00;;;;5065457;28;20035;-78
2021/08/31 02:03:47;;;;;;;8.63;6.53;;;;;19.40;101270.00;;;;5067048;28;20078;-78
2021/08/31 02:06:14;;;;;;;10.05;6.75;;;;;19.20;101265.00;;;;5066497;28;20098;-77
2021/08/31 02:08:40;;;;;;;7.57;6.20;;;;;19.00;101245.00;;;;5065845;28;20430;-78
2021/08/31 02:11:07;;;;;;;9.13;6.55;;;;;19.20;101254.00;;;;5066338;28;20479;-78
2021/08/31 02:13:34;;;;;;;8.07;6.45;;;;;18.90;101248.00;;;;5066043;28;20036;-78
2021/08/31 02:16:00;;;;;;;10.50;6.35;;;;;19.10;101264.00;;;;5066135;28;20128;-78
2021/08/31 02:18:27;;;;;;;5.88;5.28;;;;;19.30;101248.00;;;;5066749;28;20483;-78
2021/08/31 02:20:53;;;;;;;6.43;5.80;;;;;19.30;101250.00;;;;5066617;28;20056;-78
2021/08/31 02:23:20;;;;;;;7.05;6.10;;;;;19.10;101275.00;;;;5064767;28;20553;-77
2021/08/31 02:25:46;;;;;;;7.60;5.80;;;;;19.10;101267.00;;;;5066402;28;21084;-77
2021/08/31 02:28:13;;;;;;;8.32;5.90;;;;;19.00;101251.00;;;;5066722;28;20054;-77
2021/08/31 02:30:40;;;;;;;6.93;6.05;;;;;18.80;101273.00;;;;5066928;28;20037;-78
2021/08/31 02:33:06;;;;;;;8.07;6.22;;;;;19.00;101256.00;;;;5066650;28;20112;-78
2021/08/31 02:35:34;;;;;;;6.00;5.32;;;;;19.00;101262.00;;;;5066356;28;20032;-77
2021/08/31 02:38:00;;;;;;;6.82;5.97;;;;;19.10;101265.00;;;;5066595;28;20085;-77
2021/08/31 02:40:27;;;;;;;6.72;5.90;;;;;19.20;101272.00;;;;5064618;28;20448;-77
2021/08/31 02:42:53;;;;;;;6.65;5.50;;;;;19.00;101256.00;;;;5066072;28;20047;-77
2021/08/31 02:45:20;;;;;;;6.82;5.82;;;;;19.00;101274.00;;;;5065932;28;20036;-78
2021/08/31 02:47:46;;;;;;;7.78;5.18;;;;;18.90;101270.00;;;;5066258;28;20754;-78
2021/08/31 02:50:13;;;;;;;5.97;5.38;;;;;18.90;101259.00;;;;5066896;28;20098;-79
2021/08/31 02:52:40;;;;;;;7.43;5.30;;;;;19.00;101252.00;;;;5068473;28;20140;-78
2021/08/31 02:55:07;;;;;;;6.88;5.47;;;;;19.00;101256.00;;;;5070438;28;20419;-78
2021/08/31 02:57:33;;;;;;;6.65;5.75;;;;;19.00;101267.00;;;;5069524;28;20159;-78
2021/08/31 03:00:01;;;;;;;7.45;5.72;;;;;18.90;101272.00;;;;5069669;28;20171;-78
2021/08/31 03:02:28;;;;;;;6.75;5.53;;;;;18.60;101270.00;;;;5070448;28;20042;-78
2021/08/31 03:04:54;;;;;;;5.40;4.90;;;;;18.70;101274.00;;;;5069811;28;20039;-78
2021/08/31 03:07:21;;;;;;;6.75;4.97;;;;;18.70;101259.00;;;;5069626;28;20130;-78
2021/08/31 03:09:47;;;;;;;5.47;4.75;;;;;18.90;101245.00;;;;5069336;28;20028;-78
2021/08/31 03:12:14;;;;;;;8.95;5.70;;;;;18.90;101253.00;;;;5069452;28;20562;-79
2021/08/31 03:14:41;;;;;;;6.88;5.05;;;;;18.70;101253.00;;;;5069215;28;20044;-79
2021/08/31 03:17:08;;;;;;;5.30;4.75;;;;;18.90;101256.00;;;;5069919;28;20050;-78
2021/08/31 03:19:35;;;;;;;6.63;5.32;;;;;18.70;101268.00;;;;5069410;28;20399;-78
2021/08/31 03:22:05;;;;;;;8.18;5.07;;;;;18.50;101275.00;;;;5069302;28;20028;-79
2021/08/31 03:24:32;;;;;;;8.40;5.47;;;;;18.40;101280.00;;;;5068975;28;20511;-79
2021/08/31 03:26:58;;;;;;;8.73;5.45;;;;;18.60;101254.00;;;;5069289;28;20055;-78
2021/08/31 03:29:25;;;;;;;7.07;5.30;;;;;18.80;101269.00;;;;5069033;28;20036;-78
2021/08/31 03:31:51;;;;;;;8.80;5.68;;;;;18.70;101248.00;;;;5069299;28;20027;-78
2021/08/31 03:34:18;;;;;;;6.20;5.55;;;;;18.80;101254.00;;;;5067660;28;20126;-79
2021/08/31 03:36:45;;;;;;;9.73;6.00;;;;;18.90;101267.00;;;;5067794;28;20060;-78
2021/08/31 03:39:12;;;;;;;7.63;6.07;;;;;18.90;101244.00;;;;5068892;28;20458;-79
2021/08/31 03:41:38;;;;;;;6.78;6.18;;;;;18.70;101245.00;;;;5069185;28;20032;-79
2021/08/31 03:44:05;;;;;;;7.28;5.78;;;;;18.90;101260.00;;;;5068899;28;20495;-78
2021/08/31 03:46:32;;;;;;;9.88;6.30;;;;;18.90;101251.00;;;;5068981;28;20399;-78
2021/08/31 03:48:59;;;;;;;5.93;5.32;;;;;18.90;101228.00;;;;5068838;28;20024;-79
2021/08/31 03:51:26;;;;;;;7.63;6.00;;;;;18.90;101226.00;;;;5068800;28;20458;-78
2021/08/31 03:53:53;;;;;;;6.78;5.63;;;;;19.00;101261.00;;;;5068752;28;20048;-81
2021/08/31 03:56:19;;;;;;;8.85;5.60;;;;;19.00;101222.00;;;;5067323;28;20942;-80
2021/08/31 03:58:46;;;;;;;6.75;6.05;;;;;19.20;101234.00;;;;5068744;28;20025;-78
2021/08/31 04:01:13;;;;;;;6.78;6.07;;;;;19.00;101229.00;;;;5069243;28;20061;-79
2021/08/31 04:03:39;;;;;;;8.35;6.18;;;;;19.10;101253.00;;;;5068432;28;20032;-80
2021/08/31 04:06:06;;;;;;;6.38;5.70;;;;;19.20;101244.00;;;;5067171;28;20127;-79
2021/08/31 04:08:32;;;;;;;7.03;5.13;;;;;19.10;101255.00;;;;5068662;28;20039;-78
2021/08/31 04:10:59;;;;;;;11.40;5.90;;;;;19.10;101239.00;;;;5068669;28;20039;-80
2021/08/31 04:13:25;;;;;;;5.82;5.32;;;;;19.30;101240.00;;;;5068427;28;20035;-79
2021/08/31 04:15:52;;;;;;;5.75;5.20;;;;;19.20;101260.00;;;;5068749;28;20437;-78
2021/08/31 04:18:18;;;;;;;6.82;5.20;;;;;19.20;101257.00;;;;5068373;28;20081;-79
2021/08/31 04:20:45;;;;;;;6.07;5.03;;;;;19.20;101227.00;;;;5067947;28;20029;-79
2021/08/31 04:23:11;;;;;;;7.93;5.65;;;;;18.90;101232.00;;;;5068707;28;20020;-78
2021/08/31 04:25:40;;;;;;;5.97;5.38;;;;;18.80;101230.00;;;;5067903;28;20380;-78
2021/08/31 04:28:06;;;;;;;6.38;5.78;;;;;18.80;101237.00;;;;5067929;28;20028;-79
2021/08/31 04:30:33;;;;;;;6.13;5.55;;;;;18.90;101247.00;;;;5067714;28;20028;-77
2021/08/31 04:33:00;;;;;;;6.50;5.90;;;;;18.70;101235.00;;;;5067651;28;20072;-78
2021/08/31 04:35:26;;;;;;;10.15;6.60;;;;;18.90;101237.00;;;;5068230;28;20028;-79
2021/08/31 04:37:53;;;;;;;6.05;5.55;;;;;18.90;101217.00;;;;5068418;28;20029;-78
2021/08/31 04:40:20;;;;;;;6.90;5.88;;;;;18.80;101238.00;;;;5068115;28;20048;-79
2021/08/31 04:42:46;;;;;;;8.23;6.13;;;;;18.70;101219.00;;;;5068252;28;21033;-78
2021/08/31 04:45:13;;;;;;;7.38;6.10;;;;;18.50;101245.00;;;;5068231;28;20043;-78
2021/08/31 04:47:40;;;;;;;6.95;6.25;;;;;18.40;101221.00;;;;5068101;28;20032;-79
2021/08/31 04:50:08;;;;;;;7.90;6.15;;;;;18.60;101222.00;;;;5067417;28;20036;-78
2021/08/31 04:52:35;;;;;;;7.47;6.78;;;;;18.50;101224.00;;;;5068354;28;20039;-81
2021/08/31 04:55:01;;;;;;;6.30;5.70;;;;;18.60;101236.00;;;;5067663;28;20049;-79
2021/08/31 04:57:28;;;;;;;8.07;6.43;;;;;18.50;101219.00;;;;5067442;28;20617;-79
2021/08/31 04:59:54;;;;;;;6.43;5.63;;;;;18.40;101235.00;;;;5067313;28;20056;-78
2021/08/31 05:02:21;;;;;;;6.90;6.20;;;;;18.50;101229.00;;;;5067694;28;20035;-79
2021/08/31 05:04:47;;;;;;;6.97;6.18;;;;;18.40;101243.00;;;;5067401;28;20028;-79
2021/08/31 05:07:14;;;;;;;7.78;6.07;;;;;18.20;101238.00;;;;5067854;28;20391;-79
2021/08/31 05:09:43;;;;;;;6.45;5.90;;;;;18.40;101235.00;;;;5067419;28;20174;-79
2021/08/31 05:12:11;;;;;;;7.22;6.53;;;;;18.30;101214.00;;;;5067821;28;20035;-82
2021/08/31 05:14:37;;;;;;;7.82;6.57;;;;;18.60;101224.00;;;;5067259;28;20036;-78
2021/08/31 05:17:04;;;;;;;7.82;5.95;;;;;18.70;101223.00;;;;5067126;28;20033;-80
2021/08/31 05:19:33;;;;;;;6.20;5.60;;;;;18.80;101215.00;;;;5067579;28;20029;-78
2021/08/31 05:22:03;;;;;;;8.68;6.25;;;;;18.50;101208.00;;;;5067763;28;20032;-79
2021/08/31 05:24:30;;;;;;;8.82;6.63;;;;;18.40;101217.00;;;;5067866;28;20539;-78
2021/08/31 05:26:57;;;;;;;7.30;6.60;;;;;18.20;101212.00;;;;5065972;28;20498;-79
2021/08/31 05:29:23;;;;;;;9.80;6.07;;;;;18.00;101178.00;;;;5066983;28;20441;-78
2021/08/31 05:31:50;;;;;;;10.02;6.95;;;;;17.80;101196.00;;;;5067475;28;20025;-79
2021/08/31 05:34:17;;;;;;;9.00;6.82;;;;;17.80;101208.00;;;;5067161;28;20028;-78
2021/08/31 05:36:43;;;;;;;8.57;6.90;;;;;17.60;101215.00;;;;5066791;28;20028;-79
2021/08/31 05:39:10;;;;;;;10.48;7.32;;;;;17.50;101211.00;;;;5066864;28;20052;-79
2021/08/31 05:41:37;;;;;;;8.25;6.18;;;;;17.60;101208.00;;;;5067188;28;20108;-79
2021/08/31 05:44:04;;;;;;;7.78;6.32;;;;;17.60;101172.00;;;;5067023;28;20608;-79
2021/08/31 05:46:31;;;;;;;10.98;6.75;;;;;17.40;101194.00;;;;5067011;28;20035;-80
2021/08/31 05:48:58;;;;;;;9.25;6.25;;;;;17.30;101175.00;;;;5067151;28;20028;-79
2021/08/31 05:51:24;;;;;;;8.50;5.30;;;;;17.60;101180.00;;;;5066955;28;20419;-80
2021/08/31 05:53:51;;;;;;;10.65;6.35;;;;;17.70;101181.00;;;;5067014;28;20059;-79
2021/08/31 05:56:17;;;;;;;6.88;5.75;;;;;17.80;101186.00;;;;5067557;28;20165;-78
2021/08/31 05:58:44;;;;;;;6.20;5.60;;;;;17.50;101172.00;;;;5066376;28;20119;-79
2021/08/31 06:01:10;;;;;;;6.75;5.97;;;;;17.20;101180.00;;;;5066220;28;20028;-79
2021/08/31 06:03:37;;;;;;;7.85;6.07;;;;;16.90;101154.00;;;;5066620;28;20044;-79
2021/08/31 06:06:03;;;;;;;7.20;6.50;;;;;16.70;101176.00;;;;5066810;28;20399;-79
2021/08/31 06:08:31;;;;;;;8.20;6.38;;;;;16.60;101162.00;;;;5066517;28;20135;-78
2021/08/31 06:10:58;;;;;;;7.30;6.20;;;;;16.50;101185.00;;;;5067023;28;20483;-79
2021/08/31 06:13:25;;;;;;;9.70;6.65;;;;;16.40;101161.00;;;;5066677;28;20032;-79
2021/08/31 06:15:51;;;;;;;7.60;6.90;;;;;16.30;101158.00;;;;5066689;28;20025;-79
2021/08/31 06:18:18;;;;;;;7.32;6.63;;;;;16.20;101171.00;;;;5066444;28;20074;-79
2021/08/31 06:20:44;;;;;;;7.70;7.00;;;;;15.90;101146.00;;;;5065603;28;20036;-79
2021/08/31 06:23:11;;;;;;;7.82;6.93;;;;;15.80;101152.00;;;;5066669;28;20396;-80
2021/08/31 06:25:38;;;;;;;14.27;7.22;;;;;15.70;101166.00;;;;5067023;28;20430;-79
2021/08/31 06:28:05;;;;;;;7.25;6.45;;;;;15.60;101133.00;;;;5070382;28;20097;-79
2021/08/31 06:30:31;;;;;;;9.05;6.60;;;;;15.50;101155.00;;;;5070260;28;20031;-79
2021/08/31 06:32:58;;;;;;;7.07;6.35;;;;;15.50;101142.00;;;;5068786;28;20055;-79
2021/08/31 06:35:24;;;;;;;10.30;6.57;;;;;15.60;101146.00;;;;5070383;28;20020;-79
2021/08/31 06:37:51;;;;;;;7.07;6.15;;;;;15.80;101140.00;;;;5068884;28;20032;-79
2021/08/31 06:40:17;;;;;;;7.13;6.43;;;;;15.90;101118.00;;;;5069930;28;20029;-79
2021/08/31 06:42:44;;;;;;;6.50;5.90;;;;;15.90;101145.00;;;;5070685;28;20036;-79
2021/08/31 06:45:11;;;;;;;8.80;6.50;;;;;16.00;101123.00;;;;5070261;28;20063;-78
2021/08/31 06:47:37;;;;;;;7.82;5.53;;;;;16.00;101153.00;;;;5070101;28;20123;-77
2021/08/31 06:50:05;;;;;;;6.63;5.90;;;;;16.10;101138.00;;;;5070159;28;20033;-77
2021/08/31 06:52:31;;;;;;;8.38;6.13;;;;;16.00;101128.00;;;;5069767;28;20036;-78
2021/08/31 06:54:58;;;;;;;10.60;6.05;;;;;16.10;101151.00;;;;5069633;28;20505;-78
2021/08/31 06:57:24;;;;;;;7.95;6.10;;;;;16.00;101145.00;;;;5070288;28;20035;-77
2021/08/31 06:59:51;;;;;;;5.70;5.13;;;;;16.00;101149.00;;;;5069713;28;20043;-77
2021/08/31 07:02:17;;;;;;;7.32;5.03;;;;;16.50;101136.00;;;;5068811;28;20391;-77
2021/08/31 07:04:44;;;;;;;4.88;4.03;;;;;17.40;101113.00;;;;5069883;28;20028;-77
2021/08/31 07:07:10;;;;;;;8.68;4.47;;;;;17.40;101147.00;;;;5070159;28;20088;-77
2021/08/31 07:09:37;;;;;;;4.70;4.13;;;;;17.10;101126.00;;;;5069526;28;20046;-78
2021/08/31 07:12:04;;;;;;;4.78;4.32;;;;;17.30;101150.00;;;;5070206;28;20024;-77
2021/08/31 07:14:30;;;;;;;4.72;4.28;;;;;17.30;101135.00;;;;5068353;28;20521;-77
2021/08/31 07:16:57;;;;;;;5.05;3.72;;;;;17.10;101135.00;;;;5070001;28;20032;-77
2021/08/31 07:19:23;;;;;;;4.00;3.60;;;;;17.40;101122.00;;;;5069397;28;20047;-78
2021/08/31 07:21:50;;;;;;;4.30;3.90;;;;;17.70;101129.00;;;;5069967;28;20484;-77
2021/08/31 07:24:16;;;;;;;3.85;3.45;;;;;18.00;101136.00;;;;5069553;28;20043;-78
2021/08/31 07:26:43;;;;;;;4.28;3.88;;;;;17.70;101121.00;;;;5069621;28;20530;-77
2021/08/31 07:29:09;;;;;;;4.15;3.47;;;;;17.40;101135.00;;;;5070149;28;20028;-77
2021/08/31 07:31:36;;;;;;;3.80;3.50;;;;;17.10;101132.00;;;;5069571;28;20039;-77
2021/08/31 07:34:03;;;;;;;4.13;3.53;;;;;17.40;101118.00;;;;5069387;28;20047;-76
2021/08/31 07:36:29;;;;;;;4.13;3.50;;;;;17.50;101154.00;;;;5068583;28;20111;-78
2021/08/31 07:38:56;;;;;;;4.25;3.60;;;;;17.20;101139.00;;;;5069267;28;20037;-78
2021/08/31 07:41:23;;;;;;;4.97;3.97;;;;;17.00;101141.00;;;;5069260;28;20033;-77
2021/08/31 07:43:50;;;;;;;5.00;3.60;;;;;17.00;101155.00;;;;5069089;28;20124;-78
2021/08/31 07:46:18;;;;;;;3.97;3.67;;;;;16.80;101143.00;;;;5068938;28;20028;-78
2021/08/31 07:48:44;;;;;;;4.07;3.67;;;;;16.60;101148.00;;;;5068857;28;20032;-78
2021/08/31 07:51:11;;;;;;;4.47;4.07;;;;;16.40;101157.00;;;;5069122;28;20039;-78
2021/08/31 07:53:39;;;;;;;4.38;3.67;;;;;16.40;101138.00;;;;5069354;28;20503;-78
2021/08/31 07:56:06;;;;;;;4.03;3.63;;;;;16.50;101134.00;;;;5069482;28;20468;-78
2021/08/31 07:58:36;;;;;;;3.60;3.28;;;;;16.80;101165.00;;;;5068822;28;20768;-79
2021/08/31 08:01:04;;;;;;;3.30;3.00;;;;;17.10;101156.00;;;;5068695;28;20366;-78
2021/08/31 08:03:31;;;;;;;4.22;3.40;;;;;17.30;101165.00;;;;5068533;28;20063;-77
2021/08/31 08:05:57;;;;;;;3.97;3.58;;;;;17.10;101160.00;;;;5068309;28;20043;-78
2021/08/31 08:08:24;;;;;;;7.18;3.72;;;;;16.80;101158.00;;;;5067158;28;20029;-78
2021/08/31 08:10:51;;;;;;;4.50;3.65;;;;;16.60;101156.00;;;;5068301;28;20059;-78
2021/08/31 08:13:18;;;;;;;4.10;3.50;;;;;16.40;101157.00;;;;5068520;28;20487;-78
2021/08/31 08:15:45;;;;;;;5.60;3.40;;;;;16.20;101174.00;;;;5068763;28;20039;-78
2021/08/31 08:18:12;;;;;;;4.70;3.08;;;;;16.40;101156.00;;;;5068110;28;20081;-78
2021/08/31 08:20:42;;;;;;;3.95;3.30;;;;;16.50;101158.00;;;;5068510;28;20145;-78
2021/08/31 08:23:08;;;;;;;5.18;3.50;;;;;16.30;101164.00;;;;5068192;28;20044;-77
2021/08/31 08:25:35;;;;;;;4.93;3.33;;;;;16.20;101164.00;;;;5066589;28;20033;-78
2021/08/31 08:28:02;;;;;;;3.75;3.20;;;;;16.00;101170.00;;;;5066789;28;20395;-77
2021/08/31 08:30:28;;;;;;;3.80;3.17;;;;;15.70;101183.00;;;;5068316;28;20694;-77
2021/08/31 08:32:55;;;;;;;4.03;3.63;;;;;15.90;101175.00;;;;5067540;28;20145;-78
2021/08/31 08:35:22;;;;;;;5.05;3.67;;;;;15.80;101185.00;;;;5068471;28;20070;-78
2021/08/31 08:37:49;;;;;;;3.90;3.45;;;;;15.70;101197.00;;;;5068645;28;20030;-77
2021/08/31 08:40:16;;;;;;;7.32;3.30;;;;;15.60;101181.00;;;;5067996;28;20119;-78
2021/08/31 08:42:42;;;;;;;6.40;3.85;;;;;15.50;101182.00;;;;5068248;28;20036;-78
2021/08/31 08:45:09;;;;;;;3.40;3.10;;;;;15.40;101189.00;;;;5067371;28;20024;-78
2021/08/31 08:47:37;;;;;;;6.28;3.63;;;;;15.30;101197.00;;;;5067675;28;20522;-78
2021/08/31 08:50:04;;;;;;;5.25;3.85;;;;;15.20;101194.00;;;;5066824;28;20050;-78
2021/08/31 08:52:31;;;;;;;4.00;3.60;;;;;15.20;101199.00;;;;5067777;28;20139;-79
2021/08/31 08:54:57;;;;;;;3.78;3.28;;;;;15.20;101207.00;;;;5067346;28;20057;-79
2021/08/31 08:57:29;;;;;;;7.55;3.75;;;;;15.10;101218.00;;;;5067358;28;20480;-81
2021/08/31 08:59:55;;;;;;;5.40;3.92;;;;;15.00;101223.00;;;;5067489;28;20017;-77
2021/08/31 09:02:51;;;;;;;4.72;4.00;;;;;14.90;101238.00;;;;5066799;28;20020;-78
2021/08/31 09:05:32;;;;;;;4.28;3.70;;;;;14.70;101199.00;;;;5049697;28;20037;-78
2021/08/31 09:08:08;;;;;;;6.18;3.90;;;;;14.60;101220.00;;;;5067768;28;20071;-78
2021/08/31 09:10:35;;;;;;;7.07;3.50;;;;;14.60;101236.00;;;;5067482;28;20032;-78
2021/08/31 09:13:01;;;;;;;7.18;3.72;;;;;14.50;101217.00;;;;5067702;28;20086;-78
2021/08/31 09:15:34;;;;;;;4.50;3.28;;;;;14.50;101219.00;;;;5067520;28;20040;-78
2021/08/31 09:18:11;;;;;;;4.43;3.28;;;;;14.40;101239.00;;;;5067658;28;20519;-79
2021/08/31 09:20:55;;;;;;;6.25;3.75;;;;;14.40;101217.00;;;;5067430;28;20024;-77
2021/08/31 09:23:28;;;;;;;7.18;4.10;;;;;14.30;101208.00;;;;5067155;28;20032;-79
2021/08/31 09:26:01;;;;;;;4.78;3.60;;;;;14.30;101209.00;;;;5067348;28;20117;-78
2021/08/31 09:28:30;;;;;;;5.20;3.42;;;;;14.30;101215.00;;;;5068033;28;20056;-78
2021/08/31 09:31:04;;;;;;;4.57;3.22;;;;;14.40;101215.00;;;;5067723;28;20025;-77
2021/08/31 09:33:34;;;;;;;4.50;3.05;;;;;14.40;101236.00;;;;5065718;28;20028;-77
2021/08/31 09:36:15;;;;;;;7.20;3.45;;;;;14.50;101231.00;;;;5067240;28;20040;-77
2021/08/31 09:38:44;;;;;;;3.90;2.53;;;;;14.50;101236.00;;;;5067313;28;20149;-77
2021/08/31 09:41:25;;;;;;;3.63;2.90;;;;;14.40;101231.00;;;;5066873;28;20467;-79
2021/08/31 09:43:52;;;;;;;5.38;2.90;;;;;14.30;101228.00;;;;5066775;28;20037;-79
2021/08/31 09:46:19;;;;;;;4.88;2.97;;;;;14.30;101229.00;;;;5066179;28;20519;-77
2021/08/31 09:48:46;;;;;;;7.40;3.20;;;;;14.20;101251.00;;;;5066421;28;20040;-78
2021/08/31 09:51:23;;;;;;;11.20;3.22;;;;;14.10;101257.00;;;;5065129;28;20028;-76
2021/08/31 09:53:49;;;;;;;7.43;2.95;;;;;14.20;101226.00;;;;5066113;28;20052;-78
2021/08/31 09:56:16;;;;;;;4.35;2.67;;;;;14.10;101265.00;;;;5066195;28;20376;-78
2021/08/31 09:58:44;;;;;;;6.10;3.13;;;;;14.10;101248.00;;;;5066943;28;20040;-78
2021/08/31 10:01:11;;;;;;;4.90;3.10;;;;;14.00;101259.00;;;;5070152;28;20035;-78
2021/08/31 10:03:43;;;;;;;3.83;2.80;;;;;14.00;101270.00;;;;5070894;28;20058;-78
2021/08/31 10:06:13;;;;;;;6.78;2.85;;;;;14.10;101284.00;;;;5070781;28;20111;-78
2021/08/31 10:08:39;;;;;;;4.70;2.90;;;;;14.20;101252.00;;;;5070883;28;20033;-79
2021/08/31 10:11:06;;;;;;;2.90;2.42;;;;;14.20;101267.00;;;;5070622;28;20026;-78
2021/08/31 10:13:38;;;;;;;6.07;2.70;;;;;14.30;101286.00;;;;5070671;28;20066;-78
2021/08/31 10:16:06;;;;;;;4.82;2.50;;;;;14.40;101279.00;;;;5071170;28;20040;-79
2021/08/31 10:18:32;;;;;;;5.30;2.72;;;;;14.50;101291.00;;;;5070561;28;20029;-80
2021/08/31 10:21:03;;;;;;;5.05;2.80;;;;;14.70;101300.00;;;;5069624;28;20066;-82
2021/08/31 10:23:38;;;;;;;7.77;3.00;;;;;14.70;101283.00;;;;5070534;28;20507;-80
2021/08/31 10:26:23;;;;;;;5.30;2.90;;;;;14.80;101305.00;;;;5068933;28;20273;-80
2021/08/31 10:29:11;;;;;;;5.15;2.40;;;;;15.00;101284.00;;;;5069820;28;20025;-81
2021/08/31 10:31:38;;;;;;;8.85;3.30;;;;;15.20;101282.00;;;;5069750;28;20048;-80
2021/08/31 10:34:39;;;;;;;5.25;3.15;;;;;15.30;101300.00;;;;5068887;28;20039;-80
2021/08/31 10:37:16;;;;;;;15.17;11.27;;;;;15.50;101271.00;;;;5070785;28;20115;-81
2021/08/31 10:39:53;;;;;;;33.78;15.85;;;;;15.80;101293.00;;;;5070053;28;20021;-81
2021/08/31 10:42:28;;;;;;;27.05;15.25;;;;;16.00;101302.00;;;;5070422;28;20490;-80
2021/08/31 10:45:03;;;;;;;35.85;19.35;;;;;16.30;101294.00;;;;5069911;28;20036;-81
2021/08/31 10:47:36;;;;;;;15.02;10.10;;;;;16.40;101284.00;;;;5070358;28;20040;-80
2021/08/31 10:50:05;;;;;;;9.13;6.75;;;;;16.90;101287.00;;;;5070157;28;20052;-80
2021/08/31 10:52:36;;;;;;;6.03;4.65;;;;;17.00;101277.00;;;;5068279;28;20146;-80
2021/08/31 10:55:05;;;;;;;3.05;2.40;;;;;17.50;101273.00;;;;5068091;28;20070;-79
2021/08/31 10:57:37;;;;;;;6.00;2.67;;;;;17.60;101300.00;;;;5068392;28;20090;-81
2021/08/31 11:00:16;;;;;;;6.45;2.20;;;;;17.90;101286.00;;;;5070085;28;20048;-79
2021/08/31 11:02:49;;;;;;;5.28;1.90;;;;;18.10;101283.00;;;;5069699;28;20032;-79
2021/08/31 11:05:18;;;;;;;2.67;1.50;;;;;18.40;101285.00;;;;5068648;28;20035;-79
2021/08/31 11:07:46;;;;;;;7.32;1.67;;;;;18.80;101275.00;;;;5070003;28;20028;-78
2021/08/31 11:10:21;;;;;;;3.15;1.50;;;;;19.40;101264.00;;;;5069254;28;20518;-79
2021/08/31 11:12:48;;;;;;;4.60;1.30;;;;;19.60;101266.00;;;;5068615;28;20066;-78
2021/08/31 11:15:25;;;;;;;12.07;6.50;;;;;19.90;101268.00;;;;5069343;28;20028;-79
2021/08/31 11:17:52;;;;;;;10.00;1.60;;;;;20.60;101275.00;;;;5069463;28;20020;-79
2021/08/31 11:20:31;;;;;;;5.50;1.63;;;;;25.20;101100.00;;;;5069524;28;20036;-79
2021/08/31 11:23:03;;;;;;;7.07;1.83;;;;;27.40;101041.00;;;;5069309;28;20043;-79
2021/08/31 11:25:39;;;;;;;9.82;2.25;;;;;28.40;101080.00;;;;5069292;28;20044;-79
2021/08/31 11:28:07;;;;;;;14.38;2.13;;;;;29.00;101088.00;;;;5069733;28;20036;-81
2021/08/31 11:31:04;;;;;;;7.05;1.70;;;;;29.60;101069.00;;;;5069211;28;20073;-78
2021/08/31 11:33:32;;;;;;;8.05;3.00;;;;;29.30;101088.00;;;;5067884;28;20033;-78
2021/08/31 11:36:06;;;;;;;4.55;1.80;;;;;29.80;101064.00;;;;5068855;28;20025;-79
2021/08/31 11:38:34;;;;;;;6.70;1.50;;;;;29.90;101071.00;;;;5068683;28;20078;-78
2021/08/31 11:41:21;;;;;;;5.45;1.27;;;;;30.30;101058.00;;;;5069014;28;20070;-78
2021/08/31 11:43:56;;;;;;;4.40;1.95;;;;;29.90;101065.00;;;;5068965;28;20039;-79
2021/08/31 11:46:25;;;;;;;18.77;5.63;;;;;30.20;101064.00;;;;5067242;28;20492;-78
2021/08/31 11:49:20;;;;;;;5.80;0.98;;;;;30.90;101087.00;;;;5067308;28;20032;-79
2021/08/31 11:51:55;;;;;;;6.13;1.45;;;;;31.10;101112.00;;;;5069620;28;20447;-79
2021/08/31 11:54:23;;;;;;;2.58;1.00;;;;;30.40;101096.00;;;;5068910;28;20104;-79
2021/08/31 11:56:53;;;;;;;2.70;0.90;;;;;30.30;101116.00;;;;5068193;28;20507;-79
2021/08/31 11:59:42;;;;;;;24.92;5.32;;;;;31.20;101148.00;;;;5066730;28;20931;-79
2021/08/31 12:02:16;;;;;;;9.02;1.77;;;;;30.90;101155.00;;;;5068545;28;20034;-80
2021/08/31 12:04:57;;;;;;;3.97;1.77;;;;;31.20;101158.00;;;;5068513;28;20751;-80
2021/08/31 12:07:26;;;;;;;1.63;1.05;;;;;30.80;101160.00;;;;5068583;28;20090;-79
2021/08/31 12:09:55;;;;;;;9.70;2.42;;;;;31.10;101126.00;;;;5068460;28;20028;-80
2021/08/31 12:12:22;;;;;;;3.95;3.20;;;;;30.50;101124.00;;;;5068395;28;20024;-79